BAW235 EGKK-FIMP
Flight info
| Callsign | BAW235 |
|---|---|
| Flight time | N/A |
| Altitude | 33000 |
| Route | SFD Y47 DRAKE L151 SITET UN859 SOPIL DCT BALAN DCT EVPOK DCT NARAK DCT GAI DCT LOMRA DCT ROCAN DCT PUMAL N859 MOGIL UB31 ZEM/N0487F340 UM989 BSA/N0490F330 UR985 RIMEL UA605 TARAT/N0491F350 UA605 DJA UB730 DIR UM731 FL UT325 KIMKO/N0493F370 UT325 SIPKI UW325 NN UA401 DV UG661 ANDIL/N0486F390 UG661 ANVOR DCT TIBAG TIBAG2E |
| Aircraft | B77W/H-SDE1E2E3FGHIJ2J3J4J5M1RWXY/LB1D1 |
Departure
| Time | 2026-05-05 21:04 |
|---|---|
| Airport | London Gatwick Airport (EGKK) |
Arrival
| Time | N/A |
|---|---|
| Airport | Sir Seewoosagur Ramgoolam International Airport (FIMP) |
| Time | Latitude | Longitude | Altitude | Speed | Heading |
|---|---|---|---|---|---|
| 2026-05-05 20:32 | 51.15287 | -0.19502 | 213 ft | 0 kts | 77° |
| 2026-05-05 20:49 | 51.15286 | -0.19510 | 209 ft | 2 kts | 79° |
| 2026-05-05 20:49 | 51.15284 | -0.19536 | 209 ft | 2 kts | 88° |
| 2026-05-05 20:50 | 51.15285 | -0.19562 | 209 ft | 2 kts | 99° |
| 2026-05-05 20:50 | 51.15287 | -0.19579 | 209 ft | 2 kts | 108° |
| 2026-05-05 20:50 | 51.15296 | -0.19611 | 222 ft | 2 kts | 124° |
| 2026-05-05 20:50 | 51.15306 | -0.19631 | 222 ft | 2 kts | 136° |
| 2026-05-05 20:51 | 51.15319 | -0.19648 | 221 ft | 2 kts | 146° |
| 2026-05-05 20:51 | 51.15333 | -0.19661 | 224 ft | 2 kts | 154° |
| 2026-05-05 20:51 | 51.15348 | -0.19672 | 222 ft | 2 kts | 161° |
| 2026-05-05 20:51 | 51.15362 | -0.19678 | 222 ft | 1 kts | 165° |
| 2026-05-05 20:52 | 51.15367 | -0.19681 | 221 ft | 0 kts | 166° |
| 2026-05-05 20:55 | 51.15363 | -0.19679 | 209 ft | 3 kts | 166° |
| 2026-05-05 20:55 | 51.15301 | -0.19654 | 216 ft | 15 kts | 168° |
| 2026-05-05 20:55 | 51.15226 | -0.19629 | 217 ft | 17 kts | 168° |
| 2026-05-05 20:55 | 51.15106 | -0.19588 | 209 ft | 8 kts | 168° |
| 2026-05-05 20:56 | 51.15098 | -0.19585 | 212 ft | 0 kts | 168° |
| 2026-05-05 20:56 | 51.15087 | -0.19581 | 215 ft | 6 kts | 168° |
| 2026-05-05 20:57 | 51.15003 | -0.19673 | 217 ft | 20 kts | 257° |
| 2026-05-05 20:57 | 51.14980 | -0.19848 | 215 ft | 28 kts | 259° |
| 2026-05-05 20:57 | 51.14929 | -0.20202 | 217 ft | 34 kts | 258° |
| 2026-05-05 20:57 | 51.14888 | -0.20503 | 219 ft | 22 kts | 258° |
| 2026-05-05 20:58 | 51.14856 | -0.20738 | 219 ft | 22 kts | 258° |
| 2026-05-05 20:58 | 51.14823 | -0.20972 | 218 ft | 21 kts | 257° |
| 2026-05-05 20:58 | 51.14786 | -0.21185 | 219 ft | 20 kts | 253° |
| 2026-05-05 20:58 | 51.14762 | -0.21342 | 211 ft | 10 kts | 253° |
| 2026-05-05 20:59 | 51.14707 | -0.21394 | 219 ft | 10 kts | 175° |
| 2026-05-05 20:59 | 51.14645 | -0.21345 | 219 ft | 10 kts | 161° |
| 2026-05-05 20:59 | 51.14626 | -0.21335 | 216 ft | 0 kts | 164° |
| 2026-05-05 21:02 | 51.14565 | -0.21295 | 218 ft | 20 kts | 145° |
| 2026-05-05 21:02 | 51.14531 | -0.21102 | 216 ft | 12 kts | 77° |
| 2026-05-05 21:02 | 51.14534 | -0.21075 | 217 ft | 0 kts | 78° |
| 2026-05-05 21:03 | 51.14550 | -0.20957 | 217 ft | 35 kts | 78° |
| 2026-05-05 21:03 | 51.14660 | -0.20176 | 217 ft | 108 kts | 77° |
| 2026-05-05 21:03 | 51.14875 | -0.18659 | 226 ft | 169 kts | 76° |
| 2026-05-05 21:03 | 51.15151 | -0.16726 | 708 ft | 186 kts | 77° |
| 2026-05-05 21:04 | 51.15437 | -0.14650 | 1403 ft | 198 kts | 77° |
| 2026-05-05 21:04 | 51.15743 | -0.12469 | 2119 ft | 207 kts | 77° |
| 2026-05-05 21:04 | 51.16065 | -0.10184 | 2444 ft | 216 kts | 79° |
| 2026-05-05 21:04 | 51.16000 | -0.07749 | 2649 ft | 225 kts | 113° |
| 2026-05-05 21:05 | 51.15053 | -0.05736 | 2905 ft | 239 kts | 143° |
| 2026-05-05 21:05 | 51.13588 | -0.04342 | 3068 ft | 252 kts | 150° |
| 2026-05-05 21:05 | 51.12028 | -0.03011 | 3421 ft | 262 kts | 150° |
| 2026-05-05 21:05 | 51.10376 | -0.01614 | 3924 ft | 268 kts | 150° |
| 2026-05-05 21:06 | 51.08711 | -0.00221 | 4443 ft | 273 kts | 150° |
| 2026-05-05 21:06 | 51.07006 | 0.01179 | 5021 ft | 277 kts | 152° |
| 2026-05-05 21:06 | 51.05198 | 0.02297 | 5509 ft | 281 kts | 161° |
| 2026-05-05 21:06 | 51.03307 | 0.03115 | 6019 ft | 283 kts | 168° |
| 2026-05-05 21:07 | 51.01359 | 0.03662 | 6013 ft | 285 kts | 170° |
| 2026-05-05 21:07 | 50.99407 | 0.04140 | 6022 ft | 283 kts | 171° |
| 2026-05-05 21:07 | 50.97463 | 0.04608 | 6014 ft | 283 kts | 171° |
| 2026-05-05 21:07 | 50.95511 | 0.05071 | 6008 ft | 284 kts | 171° |
| 2026-05-05 21:08 | 50.93562 | 0.05530 | 6002 ft | 284 kts | 171° |
| 2026-05-05 21:08 | 50.91608 | 0.05989 | 5996 ft | 284 kts | 171° |
| 2026-05-05 21:08 | 50.89651 | 0.06447 | 6005 ft | 283 kts | 171° |
| 2026-05-05 21:08 | 50.87720 | 0.06898 | 6227 ft | 280 kts | 171° |
| 2026-05-05 21:09 | 50.85825 | 0.07340 | 6492 ft | 284 kts | 170° |
| 2026-05-05 21:09 | 50.83886 | 0.08123 | 6438 ft | 289 kts | 159° |
| 2026-05-05 21:09 | 50.82003 | 0.09212 | 6438 ft | 288 kts | 159° |
| 2026-05-05 21:09 | 50.80115 | 0.10224 | 6440 ft | 284 kts | 161° |
| 2026-05-05 21:10 | 50.78232 | 0.11159 | 6429 ft | 284 kts | 162° |
| 2026-05-05 21:10 | 50.76332 | 0.11986 | 6427 ft | 282 kts | 172° |
| 2026-05-05 21:10 | 50.74401 | 0.11724 | 6451 ft | 282 kts | 195° |
| 2026-05-05 21:10 | 50.72473 | 0.10923 | 6457 ft | 290 kts | 194° |
| 2026-05-05 21:11 | 50.70513 | 0.10187 | 6446 ft | 289 kts | 193° |
| 2026-05-05 21:11 | 50.68557 | 0.09473 | 6433 ft | 287 kts | 193° |
| 2026-05-05 21:11 | 50.66621 | 0.08769 | 6430 ft | 285 kts | 193° |
| 2026-05-05 21:11 | 50.64695 | 0.08069 | 6437 ft | 283 kts | 193° |
| 2026-05-05 21:12 | 50.62763 | 0.07368 | 6442 ft | 287 kts | 193° |
| 2026-05-05 21:12 | 50.60800 | 0.06658 | 6452 ft | 291 kts | 193° |
| 2026-05-05 21:12 | 50.58832 | 0.05946 | 6440 ft | 290 kts | 193° |
| 2026-05-05 21:12 | 50.56872 | 0.05238 | 6432 ft | 289 kts | 193° |
| 2026-05-05 21:13 | 50.54919 | 0.04534 | 6431 ft | 288 kts | 193° |
| 2026-05-05 21:13 | 50.52989 | 0.03838 | 6542 ft | 292 kts | 193° |
| 2026-05-05 21:13 | 50.50957 | 0.03106 | 6948 ft | 299 kts | 193° |
| 2026-05-05 21:13 | 50.48901 | 0.02367 | 7354 ft | 307 kts | 193° |
| 2026-05-05 21:14 | 50.46797 | 0.01611 | 7768 ft | 314 kts | 193° |
| 2026-05-05 21:14 | 50.44680 | 0.00851 | 8272 ft | 317 kts | 193° |
| 2026-05-05 21:14 | 50.42485 | 0.00067 | 8808 ft | 321 kts | 193° |
| 2026-05-05 21:14 | 50.40301 | -0.00713 | 9354 ft | 323 kts | 193° |
| 2026-05-05 21:15 | 50.38099 | -0.01496 | 9886 ft | 326 kts | 193° |
| 2026-05-05 21:15 | 50.35907 | -0.02275 | 10365 ft | 329 kts | 193° |
| 2026-05-05 21:15 | 50.33665 | -0.03072 | 10856 ft | 332 kts | 193° |
| 2026-05-05 21:15 | 50.31407 | -0.03875 | 11365 ft | 334 kts | 193° |
| 2026-05-05 21:16 | 50.29129 | -0.04684 | 11870 ft | 337 kts | 193° |
| 2026-05-05 21:16 | 50.26836 | -0.05498 | 12385 ft | 339 kts | 192° |
| 2026-05-05 21:16 | 50.24527 | -0.06315 | 12903 ft | 341 kts | 192° |
| 2026-05-05 21:16 | 50.22195 | -0.06967 | 13413 ft | 340 kts | 182° |
| 2026-05-05 21:17 | 50.19852 | -0.06663 | 13921 ft | 339 kts | 166° |
| 2026-05-05 21:17 | 50.17625 | -0.05480 | 14402 ft | 337 kts | 153° |
| 2026-05-05 21:17 | 50.15511 | -0.03918 | 14907 ft | 337 kts | 153° |
| 2026-05-05 21:17 | 50.13379 | -0.02382 | 15378 ft | 338 kts | 154° |
| 2026-05-05 21:18 | 50.11238 | -0.00875 | 15884 ft | 338 kts | 154° |
| 2026-05-05 21:18 | 50.09043 | 0.00432 | 16388 ft | 337 kts | 163° |
| 2026-05-05 21:18 | 50.06774 | 0.01344 | 16876 ft | 336 kts | 164° |
| 2026-05-05 21:18 | 50.04511 | 0.02213 | 17385 ft | 334 kts | 165° |
| 2026-05-05 21:19 | 50.02260 | 0.03079 | 17906 ft | 332 kts | 165° |
| 2026-05-05 21:19 | 50.00030 | 0.03941 | 18393 ft | 329 kts | 165° |
| 2026-05-05 21:19 | 49.97823 | 0.04797 | 18865 ft | 325 kts | 165° |
| 2026-05-05 21:19 | 49.95643 | 0.05644 | 19293 ft | 321 kts | 163° |
| 2026-05-05 21:20 | 49.93499 | 0.06481 | 19759 ft | 314 kts | 165° |
| 2026-05-05 21:20 | 49.91399 | 0.07301 | 20214 ft | 308 kts | 164° |
| 2026-05-05 21:20 | 49.89343 | 0.08104 | 20583 ft | 304 kts | 163° |
| 2026-05-05 21:20 | 49.87264 | 0.08918 | 20594 ft | 314 kts | 163° |
| 2026-05-05 21:21 | 49.85122 | 0.09758 | 20663 ft | 319 kts | 164° |
| 2026-05-05 21:21 | 49.82989 | 0.10590 | 21100 ft | 311 kts | 163° |
| 2026-05-05 21:21 | 49.80911 | 0.11398 | 21474 ft | 308 kts | 165° |
| 2026-05-05 21:21 | 49.78810 | 0.12216 | 21494 ft | 316 kts | 163° |
| 2026-05-05 21:22 | 49.76644 | 0.13062 | 21536 ft | 323 kts | 165° |
| 2026-05-05 21:22 | 49.74487 | 0.13899 | 21991 ft | 315 kts | 165° |
| 2026-05-05 21:22 | 49.72375 | 0.14717 | 22333 ft | 313 kts | 164° |
| 2026-05-05 21:22 | 49.70236 | 0.15549 | 22330 ft | 322 kts | 165° |
| 2026-05-05 21:23 | 49.68043 | 0.16399 | 22390 ft | 328 kts | 163° |
| 2026-05-05 21:23 | 49.65778 | 0.17306 | 22169 ft | 345 kts | 163° |
| 2026-05-05 21:23 | 49.63406 | 0.18271 | 22099 ft | 357 kts | 163° |
| 2026-05-05 21:23 | 49.60973 | 0.19263 | 22188 ft | 366 kts | 163° |
| 2026-05-05 21:24 | 49.58482 | 0.20277 | 22262 ft | 375 kts | 163° |
| 2026-05-05 21:24 | 49.55929 | 0.21314 | 22370 ft | 384 kts | 163° |
| 2026-05-05 21:24 | 49.53315 | 0.22371 | 22436 ft | 393 kts | 163° |
| 2026-05-05 21:24 | 49.50637 | 0.23452 | 22554 ft | 402 kts | 164° |
| 2026-05-05 21:25 | 49.47867 | 0.24569 | 22614 ft | 411 kts | 164° |
| 2026-05-05 21:25 | 49.45068 | 0.25695 | 22702 ft | 420 kts | 164° |
| 2026-05-05 21:25 | 49.42212 | 0.26844 | 22782 ft | 428 kts | 164° |
| 2026-05-05 21:25 | 49.39303 | 0.28011 | 22864 ft | 437 kts | 164° |
| 2026-05-05 21:26 | 49.36337 | 0.29202 | 22965 ft | 444 kts | 164° |
| 2026-05-05 21:26 | 49.33318 | 0.30412 | 23111 ft | 450 kts | 164° |
| 2026-05-05 21:26 | 49.30285 | 0.31628 | 23412 ft | 453 kts | 164° |
| 2026-05-05 21:26 | 49.27242 | 0.32886 | 23764 ft | 452 kts | 163° |
| 2026-05-05 21:27 | 49.24202 | 0.34169 | 24098 ft | 453 kts | 163° |
| 2026-05-05 21:27 | 49.21164 | 0.35457 | 24365 ft | 454 kts | 163° |
| 2026-05-05 21:27 | 49.18111 | 0.36750 | 24625 ft | 456 kts | 163° |
| 2026-05-05 21:27 | 49.15049 | 0.38041 | 24898 ft | 458 kts | 163° |
| 2026-05-05 21:28 | 49.11967 | 0.39336 | 25237 ft | 460 kts | 163° |
| 2026-05-05 21:28 | 49.08886 | 0.40626 | 25508 ft | 459 kts | 163° |
| 2026-05-05 21:28 | 49.05802 | 0.41913 | 25745 ft | 460 kts | 163° |
| 2026-05-05 21:28 | 49.02713 | 0.43202 | 25955 ft | 461 kts | 163° |
| 2026-05-05 21:29 | 48.99611 | 0.44494 | 26143 ft | 463 kts | 162° |
| 2026-05-05 21:29 | 48.96502 | 0.45788 | 26302 ft | 465 kts | 162° |
| 2026-05-05 21:29 | 48.93376 | 0.47087 | 26485 ft | 466 kts | 162° |
| 2026-05-05 21:29 | 48.90249 | 0.48385 | 26704 ft | 466 kts | 162° |
| 2026-05-05 21:30 | 48.87116 | 0.49684 | 26914 ft | 467 kts | 162° |
| 2026-05-05 21:30 | 48.83977 | 0.50984 | 27106 ft | 468 kts | 162° |
| 2026-05-05 21:30 | 48.80828 | 0.52286 | 27290 ft | 469 kts | 162° |
| 2026-05-05 21:30 | 48.77668 | 0.53583 | 27468 ft | 470 kts | 162° |
| 2026-05-05 21:31 | 48.74498 | 0.54838 | 27658 ft | 472 kts | 163° |
| 2026-05-05 21:31 | 48.71316 | 0.56074 | 27842 ft | 472 kts | 163° |
| 2026-05-05 21:31 | 48.68133 | 0.57304 | 28010 ft | 473 kts | 163° |
| 2026-05-05 21:31 | 48.64941 | 0.58542 | 28175 ft | 474 kts | 163° |
| 2026-05-05 21:32 | 48.58507 | 0.61047 | 28324 ft | 480 kts | 163° |
| 2026-05-05 21:32 | 48.55274 | 0.62305 | 28506 ft | 480 kts | 163° |
| 2026-05-05 21:32 | 48.52036 | 0.63563 | 28685 ft | 480 kts | 163° |
| 2026-05-05 21:33 | 48.48808 | 0.64846 | 28850 ft | 480 kts | 162° |
| 2026-05-05 21:33 | 48.47702 | 0.65294 | 28904 ft | 481 kts | 162° |
| 2026-05-05 21:33 | 48.46438 | 0.65810 | 28942 ft | 481 kts | 162° |
| 2026-05-05 21:34 | 48.43210 | 0.67133 | 29066 ft | 482 kts | 162° |
| 2026-05-05 21:34 | 48.38940 | 0.68881 | 29131 ft | 485 kts | 162° |
| 2026-05-05 21:34 | 48.33474 | 0.71101 | 29336 ft | 486 kts | 162° |
| 2026-05-05 21:35 | 48.30203 | 0.72422 | 29460 ft | 487 kts | 162° |
| 2026-05-05 21:35 | 48.26929 | 0.73743 | 29591 ft | 487 kts | 162° |
| 2026-05-05 21:35 | 48.23657 | 0.75058 | 29697 ft | 488 kts | 162° |
| 2026-05-05 21:35 | 48.20370 | 0.76360 | 29779 ft | 489 kts | 162° |
| 2026-05-05 21:36 | 48.17081 | 0.77652 | 29890 ft | 489 kts | 162° |
| 2026-05-05 21:36 | 48.14903 | 0.78505 | 29987 ft | 489 kts | 162° |